sensor_id;sensor_type;location;lat;lon;timestamp;pressure;altitude;pressure_sealevel;temperature;humidity
22753;BME280;11543;43.144;24.684;2023-09-19T00:01:33;99135.28;;;18.52;59.01
22753;BME280;11543;43.144;24.684;2023-09-19T00:03:59;99138.59;;;18.47;58.78
22753;BME280;11543;43.144;24.684;2023-09-19T00:06:29;99141.41;;;18.32;59.67
22753;BME280;11543;43.144;24.684;2023-09-19T00:08:57;99146.25;;;18.15;60.40
22753;BME280;11543;43.144;24.684;2023-09-19T00:11:24;99136.13;;;18.03;60.95
22753;BME280;11543;43.144;24.684;2023-09-19T00:13:51;99142.22;;;18.05;61.57
22753;BME280;11543;43.144;24.684;2023-09-19T00:16:16;99137.31;;;17.94;61.71
22753;BME280;11543;43.144;24.684;2023-09-19T00:18:44;99138.41;;;17.78;61.89
22753;BME280;11543;43.144;24.684;2023-09-19T00:21:10;99139.03;;;17.59;62.40
22753;BME280;11543;43.144;24.684;2023-09-19T00:23:36;99141.78;;;17.44;62.40
22753;BME280;11543;43.144;24.684;2023-09-19T00:26:02;99136.47;;;17.36;62.85
22753;BME280;11543;43.144;24.684;2023-09-19T00:28:29;99136.75;;;17.41;63.32
22753;BME280;11543;43.144;24.684;2023-09-19T00:30:55;99120.84;;;17.38;63.51
22753;BME280;11543;43.144;24.684;2023-09-19T00:33:21;99126.44;;;17.51;63.71
22753;BME280;11543;43.144;24.684;2023-09-19T00:35:56;99122.69;;;17.52;63.61
22753;BME280;11543;43.144;24.684;2023-09-19T00:38:27;99109.25;;;17.44;63.55
22753;BME280;11543;43.144;24.684;2023-09-19T00:40:53;99129.25;;;17.43;63.91
22753;BME280;11543;43.144;24.684;2023-09-19T00:43:23;99103.97;;;17.21;63.97
22753;BME280;11543;43.144;24.684;2023-09-19T00:45:51;99109.53;;;16.98;64.08
22753;BME280;11543;43.144;24.684;2023-09-19T00:48:19;99118.69;;;16.97;64.68
22753;BME280;11543;43.144;24.684;2023-09-19T00:50:46;99112.31;;;17.05;65.32
22753;BME280;11543;43.144;24.684;2023-09-19T00:53:20;99095.84;;;17.06;65.67
22753;BME280;11543;43.144;24.684;2023-09-19T00:57:07;99118.63;;;17.27;65.40
22753;BME280;11543;43.144;24.684;2023-09-19T00:59:35;99122.91;;;17.36;65.23
22753;BME280;11543;43.144;24.684;2023-09-19T01:02:02;99114.41;;;17.39;65.05
22753;BME280;11543;43.144;24.684;2023-09-19T01:04:29;99107.56;;;17.43;64.54
22753;BME280;11543;43.144;24.684;2023-09-19T01:06:56;99120.22;;;17.57;64.41
22753;BME280;11543;43.144;24.684;2023-09-19T01:09:23;99118.63;;;17.63;63.89
22753;BME280;11543;43.144;24.684;2023-09-19T01:11:51;99114.03;;;17.63;63.49
22753;BME280;11543;43.144;24.684;2023-09-19T01:14:58;99122.06;;;17.71;63.07
22753;BME280;11543;43.144;24.684;2023-09-19T01:17:30;99112.25;;;17.70;62.75
22753;BME280;11543;43.144;24.684;2023-09-19T01:23:11;99110.56;;;17.69;62.36
22753;BME280;11543;43.144;24.684;2023-09-19T01:31:24;99106.38;;;17.67;62.54
22753;BME280;11543;43.144;24.684;2023-09-19T01:33:58;99090.66;;;17.62;62.52
22753;BME280;11543;43.144;24.684;2023-09-19T01:36:34;99097.75;;;17.63;62.61
22753;BME280;11543;43.144;24.684;2023-09-19T01:39:03;99082.88;;;17.38;62.91
22753;BME280;11543;43.144;24.684;2023-09-19T01:41:53;99104.03;;;17.28;63.74
22753;BME280;11543;43.144;24.684;2023-09-19T01:44:56;99101.97;;;17.30;64.20
22753;BME280;11543;43.144;24.684;2023-09-19T01:47:52;99087.75;;;17.28;64.06
22753;BME280;11543;43.144;24.684;2023-09-19T01:50:39;99091.41;;;17.35;63.66
22753;BME280;11543;43.144;24.684;2023-09-19T01:53:18;99078.59;;;17.29;63.36
22753;BME280;11543;43.144;24.684;2023-09-19T01:55:49;99100.84;;;17.39;63.20
22753;BME280;11543;43.144;24.684;2023-09-19T02:01:03;99097.47;;;17.37;62.73
22753;BME280;11543;43.144;24.684;2023-09-19T02:03:31;99110.91;;;17.45;62.95
22753;BME280;11543;43.144;24.684;2023-09-19T02:05:57;99098.78;;;17.26;63.37
22753;BME280;11543;43.144;24.684;2023-09-19T02:08:26;99113.38;;;17.40;63.20
22753;BME280;11543;43.144;24.684;2023-09-19T02:10:53;99107.19;;;17.46;63.20
22753;BME280;11543;43.144;24.684;2023-09-19T02:13:20;99093.34;;;17.41;63.00
22753;BME280;11543;43.144;24.684;2023-09-19T02:15:46;99087.47;;;17.37;63.24
22753;BME280;11543;43.144;24.684;2023-09-19T02:18:12;99090.00;;;17.39;63.07
22753;BME280;11543;43.144;24.684;2023-09-19T02:20:39;99098.00;;;17.47;62.81
22753;BME280;11543;43.144;24.684;2023-09-19T02:23:05;99090.63;;;17.41;62.58
22753;BME280;11543;43.144;24.684;2023-09-19T02:25:30;99100.06;;;17.45;62.54
22753;BME280;11543;43.144;24.684;2023-09-19T02:27:57;99090.84;;;17.39;63.02
22753;BME280;11543;43.144;24.684;2023-09-19T02:30:24;99105.81;;;17.35;63.58
22753;BME280;11543;43.144;24.684;2023-09-19T02:32:53;99099.09;;;17.16;63.74
22753;BME280;11543;43.144;24.684;2023-09-19T02:35:18;99083.84;;;16.94;64.29
22753;BME280;11543;43.144;24.684;2023-09-19T02:37:50;99091.19;;;17.00;64.44
22753;BME280;11543;43.144;24.684;2023-09-19T02:40:15;99087.56;;;16.93;64.15
22753;BME280;11543;43.144;24.684;2023-09-19T02:42:47;99094.13;;;16.84;64.44
22753;BME280;11543;43.144;24.684;2023-09-19T02:45:18;99091.97;;;16.65;64.92
22753;BME280;11543;43.144;24.684;2023-09-19T02:47:45;99101.81;;;16.66;65.29
22753;BME280;11543;43.144;24.684;2023-09-19T02:50:11;99113.75;;;16.71;65.47
22753;BME280;11543;43.144;24.684;2023-09-19T02:52:37;99103.94;;;16.55;66.15
22753;BME280;11543;43.144;24.684;2023-09-19T02:55:03;99113.16;;;16.46;66.55
22753;BME280;11543;43.144;24.684;2023-09-19T02:57:31;99104.19;;;16.46;66.92
22753;BME280;11543;43.144;24.684;2023-09-19T02:59:59;99110.00;;;16.58;66.58
22753;BME280;11543;43.144;24.684;2023-09-19T03:02:27;99106.19;;;16.67;66.43
22753;BME280;11543;43.144;24.684;2023-09-19T03:04:54;99097.13;;;16.74;66.05
22753;BME280;11543;43.144;24.684;2023-09-19T03:07:21;99087.22;;;16.81;65.83
22753;BME280;11543;43.144;24.684;2023-09-19T03:09:47;99086.00;;;16.84;65.75
22753;BME280;11543;43.144;24.684;2023-09-19T03:12:13;99073.69;;;16.67;65.78
22753;BME280;11543;43.144;24.684;2023-09-19T03:14:41;99072.63;;;16.38;66.13
22753;BME280;11543;43.144;24.684;2023-09-19T03:17:06;99085.78;;;16.27;66.77
22753;BME280;11543;43.144;24.684;2023-09-19T03:19:34;99090.81;;;16.15;67.15
22753;BME280;11543;43.144;24.684;2023-09-19T03:22:00;99074.00;;;16.05;68.33
22753;BME280;11543;43.144;24.684;2023-09-19T03:24:25;99062.22;;;15.98;68.42
22753;BME280;11543;43.144;24.684;2023-09-19T03:26:51;99084.06;;;15.96;68.72
22753;BME280;11543;43.144;24.684;2023-09-19T03:29:17;99087.59;;;15.97;69.30
22753;BME280;11543;43.144;24.684;2023-09-19T03:31:43;99082.56;;;15.93;69.14
22753;BME280;11543;43.144;24.684;2023-09-19T03:34:09;99097.22;;;15.99;69.14
22753;BME280;11543;43.144;24.684;2023-09-19T03:36:35;99088.91;;;16.01;69.31
22753;BME280;11543;43.144;24.684;2023-09-19T03:39:01;99085.16;;;15.87;69.27
22753;BME280;11543;43.144;24.684;2023-09-19T03:41:30;99080.78;;;15.63;69.38
22753;BME280;11543;43.144;24.684;2023-09-19T03:43:56;99099.72;;;15.55;69.69
22753;BME280;11543;43.144;24.684;2023-09-19T03:46:22;99086.94;;;15.49;70.70
22753;BME280;11543;43.144;24.684;2023-09-19T03:48:47;99100.31;;;15.73;71.12
22753;BME280;11543;43.144;24.684;2023-09-19T03:51:13;99105.97;;;15.86;70.26
22753;BME280;11543;43.144;24.684;2023-09-19T03:53:38;99074.88;;;15.82;69.68
22753;BME280;11543;43.144;24.684;2023-09-19T03:56:04;99078.81;;;15.95;69.49
22753;BME280;11543;43.144;24.684;2023-09-19T03:58:30;99078.38;;;16.06;69.14
22753;BME280;11543;43.144;24.684;2023-09-19T04:00:56;99079.59;;;16.18;68.92
22753;BME280;11543;43.144;24.684;2023-09-19T04:03:22;99080.91;;;16.22;68.67
22753;BME280;11543;43.144;24.684;2023-09-19T04:05:48;99068.78;;;16.18;68.62
22753;BME280;11543;43.144;24.684;2023-09-19T04:08:13;99067.84;;;16.11;68.55
22753;BME280;11543;43.144;24.684;2023-09-19T04:10:42;99082.66;;;16.00;69.02
22753;BME280;11543;43.144;24.684;2023-09-19T04:13:07;99083.50;;;16.01;68.96
22753;BME280;11543;43.144;24.684;2023-09-19T04:15:33;99085.56;;;15.99;69.05
22753;BME280;11543;43.144;24.684;2023-09-19T04:18:00;99082.75;;;16.07;68.95
22753;BME280;11543;43.144;24.684;2023-09-19T04:20:26;99086.88;;;16.03;68.96
22753;BME280;11543;43.144;24.684;2023-09-19T04:22:51;99089.28;;;15.98;69.35
22753;BME280;11543;43.144;24.684;2023-09-19T04:25:17;99110.31;;;16.10;69.47
22753;BME280;11543;43.144;24.684;2023-09-19T04:27:44;99102.28;;;16.17;69.61
22753;BME280;11543;43.144;24.684;2023-09-19T04:30:10;99094.16;;;16.17;69.42
22753;BME280;11543;43.144;24.684;2023-09-19T04:32:38;99103.88;;;16.26;69.22
22753;BME280;11543;43.144;24.684;2023-09-19T04:35:08;99110.25;;;16.33;69.23
22753;BME280;11543;43.144;24.684;2023-09-19T04:37:37;99109.13;;;16.42;69.22
22753;BME280;11543;43.144;24.684;2023-09-19T04:40:04;99108.28;;;16.42;69.14
22753;BME280;11543;43.144;24.684;2023-09-19T04:42:35;99100.56;;;16.53;69.25
22753;BME280;11543;43.144;24.684;2023-09-19T04:45:01;99094.13;;;16.54;69.02
22753;BME280;11543;43.144;24.684;2023-09-19T04:47:26;99089.56;;;16.70;68.71
22753;BME280;11543;43.144;24.684;2023-09-19T04:49:52;99086.19;;;16.68;68.47
22753;BME280;11543;43.144;24.684;2023-09-19T04:52:18;99092.56;;;16.75;68.30
22753;BME280;11543;43.144;24.684;2023-09-19T04:54:44;99092.34;;;16.76;68.17
22753;BME280;11543;43.144;24.684;2023-09-19T04:57:10;99097.88;;;16.83;68.07
22753;BME280;11543;43.144;24.684;2023-09-19T04:59:35;99088.97;;;16.89;67.82
22753;BME280;11543;43.144;24.684;2023-09-19T05:02:04;99087.94;;;16.90;67.66
22753;BME280;11543;43.144;24.684;2023-09-19T05:04:30;99099.06;;;16.95;67.94
22753;BME280;11543;43.144;24.684;2023-09-19T05:06:56;99095.97;;;16.98;67.93
22753;BME280;11543;43.144;24.684;2023-09-19T05:09:22;99097.91;;;17.04;67.74
22753;BME280;11543;43.144;24.684;2023-09-19T05:11:48;99084.47;;;16.96;67.72
22753;BME280;11543;43.144;24.684;2023-09-19T05:14:16;99092.91;;;16.86;68.45
22753;BME280;11543;43.144;24.684;2023-09-19T05:16:42;99088.81;;;16.76;69.49
22753;BME280;11543;43.144;24.684;2023-09-19T05:19:08;99100.94;;;16.80;69.90
22753;BME280;11543;43.144;24.684;2023-09-19T05:21:36;99097.59;;;16.78;70.43
22753;BME280;11543;43.144;24.684;2023-09-19T05:24:05;99094.22;;;16.76;70.34
22753;BME280;11543;43.144;24.684;2023-09-19T05:26:32;99090.38;;;16.85;70.43
22753;BME280;11543;43.144;24.684;2023-09-19T05:28:57;99088.88;;;16.97;70.14
22753;BME280;11543;43.144;24.684;2023-09-19T05:31:23;99088.00;;;17.11;69.86
22753;BME280;11543;43.144;24.684;2023-09-19T05:33:49;99087.22;;;17.17;69.55
22753;BME280;11543;43.144;24.684;2023-09-19T05:36:15;99094.84;;;17.29;69.24
22753;BME280;11543;43.144;24.684;2023-09-19T05:38:41;99090.66;;;17.26;69.24
22753;BME280;11543;43.144;24.684;2023-09-19T05:41:08;99085.44;;;17.25;69.09
22753;BME280;11543;43.144;24.684;2023-09-19T05:43:34;99078.31;;;17.24;69.28
22753;BME280;11543;43.144;24.684;2023-09-19T05:46:03;99085.31;;;17.33;69.57
22753;BME280;11543;43.144;24.684;2023-09-19T05:48:28;99092.06;;;17.37;69.70
22753;BME280;11543;43.144;24.684;2023-09-19T05:50:54;99075.31;;;17.33;69.91
22753;BME280;11543;43.144;24.684;2023-09-19T05:53:19;99068.94;;;17.41;69.73
22753;BME280;11543;43.144;24.684;2023-09-19T05:55:45;99086.38;;;17.53;69.90
22753;BME280;11543;43.144;24.684;2023-09-19T05:58:13;99073.47;;;17.55;69.98
22753;BME280;11543;43.144;24.684;2023-09-19T06:00:44;99069.25;;;17.52;69.97
22753;BME280;11543;43.144;24.684;2023-09-19T06:03:17;99077.38;;;17.67;69.92
22753;BME280;11543;43.144;24.684;2023-09-19T06:05:44;99072.19;;;17.72;69.55
22753;BME280;11543;43.144;24.684;2023-09-19T06:08:14;99071.81;;;17.75;69.68
22753;BME280;11543;43.144;24.684;2023-09-19T06:10:39;99057.00;;;17.78;69.63
22753;BME280;11543;43.144;24.684;2023-09-19T06:13:06;99044.47;;;17.77;69.41
22753;BME280;11543;43.144;24.684;2023-09-19T06:15:35;99065.50;;;17.96;69.46
22753;BME280;11543;43.144;24.684;2023-09-19T06:18:01;99061.41;;;18.07;69.38
22753;BME280;11543;43.144;24.684;2023-09-19T06:20:30;99043.44;;;18.06;68.90
22753;BME280;11543;43.144;24.684;2023-09-19T06:22:56;99040.16;;;18.17;68.52
22753;BME280;11543;43.144;24.684;2023-09-19T06:25:22;99051.19;;;18.37;68.29
22753;BME280;11543;43.144;24.684;2023-09-19T06:27:52;99055.66;;;18.51;67.88
22753;BME280;11543;43.144;24.684;2023-09-19T06:30:40;99028.28;;;18.53;67.76
22753;BME280;11543;43.144;24.684;2023-09-19T06:33:06;99042.59;;;18.68;67.39
22753;BME280;11543;43.144;24.684;2023-09-19T06:35:33;99032.13;;;18.65;67.27
22753;BME280;11543;43.144;24.684;2023-09-19T06:38:01;99034.88;;;18.71;67.38
22753;BME280;11543;43.144;24.684;2023-09-19T06:40:28;99042.25;;;18.84;67.48
22753;BME280;11543;43.144;24.684;2023-09-19T06:42:54;99042.03;;;18.86;67.70
22753;BME280;11543;43.144;24.684;2023-09-19T06:45:21;99041.44;;;18.97;67.82
22753;BME280;11543;43.144;24.684;2023-09-19T06:47:48;99035.81;;;19.05;67.91
22753;BME280;11543;43.144;24.684;2023-09-19T06:50:16;99045.72;;;19.13;67.88
22753;BME280;11543;43.144;24.684;2023-09-19T06:52:44;99036.31;;;19.22;67.76
22753;BME280;11543;43.144;24.684;2023-09-19T06:55:12;99030.69;;;19.30;67.47
22753;BME280;11543;43.144;24.684;2023-09-19T06:57:39;99044.53;;;19.48;67.24
22753;BME280;11543;43.144;24.684;2023-09-19T07:00:06;99037.88;;;19.57;67.38
22753;BME280;11543;43.144;24.684;2023-09-19T07:02:41;99038.50;;;19.72;67.26
22753;BME280;11543;43.144;24.684;2023-09-19T07:05:07;99038.69;;;19.91;66.46
22753;BME280;11543;43.144;24.684;2023-09-19T07:07:33;99029.06;;;20.08;65.54
22753;BME280;11543;43.144;24.684;2023-09-19T07:10:01;99021.06;;;20.26;65.51
22753;BME280;11543;43.144;24.684;2023-09-19T07:12:26;99026.09;;;20.43;64.76
22753;BME280;11543;43.144;24.684;2023-09-19T07:14:52;99024.75;;;20.65;64.25
22753;BME280;11543;43.144;24.684;2023-09-19T07:17:18;99017.78;;;20.82;63.66
22753;BME280;11543;43.144;24.684;2023-09-19T07:19:44;99008.72;;;20.95;63.55
22753;BME280;11543;43.144;24.684;2023-09-19T07:22:10;99017.41;;;21.17;63.37
22753;BME280;11543;43.144;24.684;2023-09-19T07:24:36;99014.81;;;21.35;63.08
22753;BME280;11543;43.144;24.684;2023-09-19T07:27:02;99014.25;;;21.51;62.20
22753;BME280;11543;43.144;24.684;2023-09-19T07:29:28;99008.28;;;21.68;61.81
22753;BME280;11543;43.144;24.684;2023-09-19T07:31:53;99014.72;;;21.98;60.75
22753;BME280;11543;43.144;24.684;2023-09-19T07:34:19;98998.25;;;22.11;59.39
22753;BME280;11543;43.144;24.684;2023-09-19T07:36:48;99010.56;;;22.39;57.81
22753;BME280;11543;43.144;24.684;2023-09-19T07:39:14;99011.19;;;22.59;56.91
22753;BME280;11543;43.144;24.684;2023-09-19T07:41:40;98991.19;;;22.77;55.66
22753;BME280;11543;43.144;24.684;2023-09-19T07:44:05;99005.03;;;23.00;55.40
22753;BME280;11543;43.144;24.684;2023-09-19T07:46:31;98982.25;;;23.18;54.32
22753;BME280;11543;43.144;24.684;2023-09-19T07:48:57;98967.09;;;23.45;53.47
22753;BME280;11543;43.144;24.684;2023-09-19T07:51:23;98987.41;;;23.68;52.64
22753;BME280;11543;43.144;24.684;2023-09-19T07:53:49;98974.56;;;24.03;50.82
22753;BME280;11543;43.144;24.684;2023-09-19T07:56:16;98984.72;;;24.38;50.51
22753;BME280;11543;43.144;24.684;2023-09-19T07:58:43;98980.25;;;24.60;49.96
22753;BME280;11543;43.144;24.684;2023-09-19T08:01:11;98986.50;;;24.84;49.40
22753;BME280;11543;43.144;24.684;2023-09-19T08:03:39;98974.41;;;24.97;48.40
22753;BME280;11543;43.144;24.684;2023-09-19T08:06:10;98976.16;;;25.15;47.90
22753;BME280;11543;43.144;24.684;2023-09-19T08:08:37;98973.53;;;25.36;46.66
22753;BME280;11543;43.144;24.684;2023-09-19T08:11:04;98974.81;;;25.62;46.12
22753;BME280;11543;43.144;24.684;2023-09-19T08:13:38;98979.25;;;25.80;46.29
22753;BME280;11543;43.144;24.684;2023-09-19T08:16:12;98964.50;;;25.86;45.93
22753;BME280;11543;43.144;24.684;2023-09-19T08:18:42;98964.59;;;26.08;44.89
22753;BME280;11543;43.144;24.684;2023-09-19T08:21:08;98956.41;;;26.13;44.56
22753;BME280;11543;43.144;24.684;2023-09-19T08:23:37;98958.53;;;26.28;44.27
22753;BME280;11543;43.144;24.684;2023-09-19T08:26:04;98953.22;;;26.38;43.63
22753;BME280;11543;43.144;24.684;2023-09-19T08:28:35;98952.81;;;26.51;43.65
22753;BME280;11543;43.144;24.684;2023-09-19T08:31:05;98951.91;;;26.67;42.59
22753;BME280;11543;43.144;24.684;2023-09-19T08:33:35;98931.56;;;26.69;41.92
22753;BME280;11543;43.144;24.684;2023-09-19T08:36:04;98937.31;;;26.89;42.01
22753;BME280;11543;43.144;24.684;2023-09-19T08:38:31;98948.59;;;27.09;41.61
22753;BME280;11543;43.144;24.684;2023-09-19T08:40:58;98948.25;;;27.33;41.18
22753;BME280;11543;43.144;24.684;2023-09-19T08:43:27;98940.97;;;27.48;41.04
22753;BME280;11543;43.144;24.684;2023-09-19T08:45:58;98949.16;;;27.70;39.20
22753;BME280;11543;43.144;24.684;2023-09-19T08:48:29;98929.19;;;27.85;38.13
22753;BME280;11543;43.144;24.684;2023-09-19T08:51:10;98934.03;;;28.15;37.32
22753;BME280;11543;43.144;24.684;2023-09-19T08:54:03;98939.16;;;28.38;36.11
22753;BME280;11543;43.144;24.684;2023-09-19T08:56:32;98935.59;;;28.43;35.33
22753;BME280;11543;43.144;24.684;2023-09-19T08:59:05;98919.34;;;28.51;36.26
22753;BME280;11543;43.144;24.684;2023-09-19T09:01:34;98928.84;;;28.71;36.34
22753;BME280;11543;43.144;24.684;2023-09-19T09:04:01;98924.22;;;28.87;35.72
22753;BME280;11543;43.144;24.684;2023-09-19T09:06:27;98907.94;;;28.90;35.49
22753;BME280;11543;43.144;24.684;2023-09-19T09:08:58;98924.81;;;29.09;35.39
22753;BME280;11543;43.144;24.684;2023-09-19T09:11:23;98919.84;;;29.16;34.65
22753;BME280;11543;43.144;24.684;2023-09-19T09:13:50;98918.19;;;29.20;34.02
22753;BME280;11543;43.144;24.684;2023-09-19T09:16:15;98913.50;;;29.15;33.98
22753;BME280;11543;43.144;24.684;2023-09-19T09:18:45;98920.69;;;29.11;33.60
22753;BME280;11543;43.144;24.684;2023-09-19T09:21:11;98914.59;;;29.04;33.11
22753;BME280;11543;43.144;24.684;2023-09-19T09:23:37;98919.25;;;28.94;33.60
22753;BME280;11543;43.144;24.684;2023-09-19T09:26:04;98923.69;;;28.90;33.55
22753;BME280;11543;43.144;24.684;2023-09-19T09:28:32;98912.63;;;28.84;34.19
22753;BME280;11543;43.144;24.684;2023-09-19T09:30:58;98907.94;;;28.85;34.04
22753;BME280;11543;43.144;24.684;2023-09-19T09:33:25;98906.81;;;28.86;33.89
22753;BME280;11543;43.144;24.684;2023-09-19T09:35:56;98906.56;;;28.93;33.36
22753;BME280;11543;43.144;24.684;2023-09-19T09:38:25;98910.44;;;29.02;32.72
22753;BME280;11543;43.144;24.684;2023-09-19T09:40:53;98912.66;;;29.10;32.33
22753;BME280;11543;43.144;24.684;2023-09-19T09:43:34;98912.94;;;29.13;32.68
22753;BME280;11543;43.144;24.684;2023-09-19T09:46:16;98903.00;;;29.17;32.45
22753;BME280;11543;43.144;24.684;2023-09-19T09:51:44;98909.66;;;29.37;32.17
22753;BME280;11543;43.144;24.684;2023-09-19T09:54:23;98916.59;;;29.44;32.23
22753;BME280;11543;43.144;24.684;2023-09-19T09:59:44;98915.78;;;29.49;31.50
22753;BME280;11543;43.144;24.684;2023-09-19T10:02:21;98908.59;;;29.48;31.52
22753;BME280;11543;43.144;24.684;2023-09-19T10:04:55;98920.19;;;29.65;31.49
22753;BME280;11543;43.144;24.684;2023-09-19T10:07:40;98921.88;;;29.66;31.48
22753;BME280;11543;43.144;24.684;2023-09-19T10:10:12;98912.47;;;29.67;30.92
22753;BME280;11543;43.144;24.684;2023-09-19T10:12:47;98920.19;;;29.75;30.82
22753;BME280;11543;43.144;24.684;2023-09-19T10:15:15;98920.47;;;29.79;30.74
22753;BME280;11543;43.144;24.684;2023-09-19T10:17:45;98913.00;;;29.74;31.23
22753;BME280;11543;43.144;24.684;2023-09-19T10:20:17;98900.28;;;29.73;30.87
22753;BME280;11543;43.144;24.684;2023-09-19T10:23:10;98915.75;;;29.85;31.33
22753;BME280;11543;43.144;24.684;2023-09-19T10:25:41;98917.41;;;29.91;30.73
22753;BME280;11543;43.144;24.684;2023-09-19T10:28:09;98904.97;;;29.88;30.67
22753;BME280;11543;43.144;24.684;2023-09-19T10:30:41;98901.38;;;29.88;30.54
22753;BME280;11543;43.144;24.684;2023-09-19T10:33:13;98894.19;;;29.87;30.83
22753;BME280;11543;43.144;24.684;2023-09-19T10:35:42;98900.25;;;29.94;31.13
22753;BME280;11543;43.144;24.684;2023-09-19T10:38:14;98908.53;;;29.99;30.52
22753;BME280;11543;43.144;24.684;2023-09-19T10:40:40;98900.25;;;29.94;30.85
22753;BME280;11543;43.144;24.684;2023-09-19T10:43:13;98897.47;;;29.99;30.91
22753;BME280;11543;43.144;24.684;2023-09-19T10:45:49;98904.66;;;30.15;30.69
22753;BME280;11543;43.144;24.684;2023-09-19T10:48:16;98890.25;;;30.18;31.16
22753;BME280;11543;43.144;24.684;2023-09-19T10:53:45;98877.13;;;30.54;30.05
22753;BME280;11543;43.144;24.684;2023-09-19T10:56:18;98875.69;;;30.67;29.83
22753;BME280;11543;43.144;24.684;2023-09-19T10:58:44;98868.97;;;30.78;29.55
22753;BME280;11543;43.144;24.684;2023-09-19T11:01:11;98870.59;;;30.84;29.74
22753;BME280;11543;43.144;24.684;2023-09-19T11:03:41;98874.59;;;31.07;29.06
22753;BME280;11543;43.144;24.684;2023-09-19T11:06:18;98878.69;;;31.25;27.67
22753;BME280;11543;43.144;24.684;2023-09-19T11:08:51;98878.69;;;31.20;28.10
22753;BME280;11543;43.144;24.684;2023-09-19T11:11:39;98876.41;;;31.32;27.04
22753;BME280;11543;43.144;24.684;2023-09-19T11:30:51;98854.88;;;31.82;25.21
22753;BME280;11543;43.144;24.684;2023-09-19T11:36:08;98860.50;;;32.00;24.60
22753;BME280;11543;43.144;24.684;2023-09-19T11:46:52;98848.56;;;32.00;23.76
22753;BME280;11543;43.144;24.684;2023-09-19T11:49:19;98841.38;;;31.99;24.16
22753;BME280;11543;43.144;24.684;2023-09-19T11:51:51;98840.72;;;32.07;24.57
22753;BME280;11543;43.144;24.684;2023-09-19T11:54:17;98840.69;;;32.12;24.58
22753;BME280;11543;43.144;24.684;2023-09-19T11:56:44;98835.72;;;32.09;25.29
22753;BME280;11543;43.144;24.684;2023-09-19T11:59:11;98831.75;;;32.15;24.71
22753;BME280;11543;43.144;24.684;2023-09-19T12:01:38;98823.72;;;32.14;25.00
22753;BME280;11543;43.144;24.684;2023-09-19T12:04:11;98820.84;;;32.24;25.40
22753;BME280;11543;43.144;24.684;2023-09-19T12:06:37;98821.09;;;32.27;25.12
22753;BME280;11543;43.144;24.684;2023-09-19T12:09:13;98820.72;;;32.34;24.92
22753;BME280;11543;43.144;24.684;2023-09-19T12:11:42;98823.06;;;32.46;23.62
22753;BME280;11543;43.144;24.684;2023-09-19T12:14:11;98812.84;;;32.41;23.25
22753;BME280;11543;43.144;24.684;2023-09-19T12:16:36;98807.00;;;32.43;23.34
22753;BME280;11543;43.144;24.684;2023-09-19T12:19:19;98827.88;;;32.59;23.63
22753;BME280;11543;43.144;24.684;2023-09-19T12:22:00;98814.50;;;32.61;23.83
22753;BME280;11543;43.144;24.684;2023-09-19T12:24:34;98806.03;;;32.71;23.48
22753;BME280;11543;43.144;24.684;2023-09-19T12:27:05;98814.34;;;32.71;23.05
22753;BME280;11543;43.144;24.684;2023-09-19T12:29:32;98811.66;;;32.66;22.36
22753;BME280;11543;43.144;24.684;2023-09-19T12:31:59;98810.16;;;32.55;22.46
22753;BME280;11543;43.144;24.684;2023-09-19T12:34:30;98815.84;;;32.45;23.41
22753;BME280;11543;43.144;24.684;2023-09-19T12:37:13;98808.66;;;32.44;23.76
22753;BME280;11543;43.144;24.684;2023-09-19T12:39:49;98820.81;;;32.48;24.01
22753;BME280;11543;43.144;24.684;2023-09-19T12:42:19;98810.97;;;32.37;24.21
22753;BME280;11543;43.144;24.684;2023-09-19T12:44:47;98809.69;;;32.48;24.03
22753;BME280;11543;43.144;24.684;2023-09-19T12:47:15;98817.97;;;32.53;23.97
22753;BME280;11543;43.144;24.684;2023-09-19T12:52:38;98805.88;;;32.62;23.63
22753;BME280;11543;43.144;24.684;2023-09-19T12:55:04;98806.47;;;32.59;23.63
22753;BME280;11543;43.144;24.684;2023-09-19T12:57:32;98808.50;;;32.54;23.81
22753;BME280;11543;43.144;24.684;2023-09-19T13:00:03;98810.16;;;32.55;24.08
22753;BME280;11543;43.144;24.684;2023-09-19T13:02:35;98806.25;;;32.56;24.15
22753;BME280;11543;43.144;24.684;2023-09-19T13:05:01;98801.06;;;32.49;23.63
22753;BME280;11543;43.144;24.684;2023-09-19T13:07:45;98798.13;;;32.41;23.59
22753;BME280;11543;43.144;24.684;2023-09-19T13:10:16;98791.53;;;32.37;23.48
22753;BME280;11543;43.144;24.684;2023-09-19T13:12:43;98789.34;;;32.34;23.59
22753;BME280;11543;43.144;24.684;2023-09-19T13:15:14;98801.00;;;32.36;23.41
22753;BME280;11543;43.144;24.684;2023-09-19T13:17:49;98782.50;;;32.26;23.53
22753;BME280;11543;43.144;24.684;2023-09-19T13:20:25;98784.41;;;32.30;23.80
22753;BME280;11543;43.144;24.684;2023-09-19T13:22:53;98786.81;;;32.37;23.96
22753;BME280;11543;43.144;24.684;2023-09-19T13:25:21;98781.47;;;32.41;23.34
22753;BME280;11543;43.144;24.684;2023-09-19T13:27:51;98783.81;;;32.52;23.45
22753;BME280;11543;43.144;24.684;2023-09-19T13:30:18;98777.28;;;32.62;23.04
22753;BME280;11543;43.144;24.684;2023-09-19T13:32:44;98779.88;;;32.72;23.04
22753;BME280;11543;43.144;24.684;2023-09-19T13:35:12;98779.59;;;32.74;22.82
22753;BME280;11543;43.144;24.684;2023-09-19T13:37:38;98781.63;;;32.68;23.40
22753;BME280;11543;43.144;24.684;2023-09-19T13:40:11;98781.63;;;32.68;23.64
22753;BME280;11543;43.144;24.684;2023-09-19T13:42:38;98773.38;;;32.63;23.79
22753;BME280;11543;43.144;24.684;2023-09-19T13:45:04;98768.56;;;32.50;24.69
22753;BME280;11543;43.144;24.684;2023-09-19T13:47:33;98773.16;;;32.41;24.78
22753;BME280;11543;43.144;24.684;2023-09-19T13:50:01;98778.78;;;32.36;24.78
22753;BME280;11543;43.144;24.684;2023-09-19T13:52:27;98766.78;;;32.16;24.95